Time;durP1;ratioP1;P1;durP2;ratioP2;P2;SDS_P1;SDS_P2;PMS_P1;PMS_P2;Temp;Humidity;BMP_temperature;BMP_pressure;BME280_temperature;BME280_humidity;BME280_pressure;Samples;Min_cycle;Max_cycle;Signal;HPM_P1;HPM_P2
2023/07/08 00:01:05;;;;;;;4.80;4.30;;;;;;;;;;5077260;28;20503;-64
2023/07/08 00:03:32;;;;;;;5.50;4.03;;;;;;;;;;5072791;28;20520;-64
2023/07/08 00:05:58;;;;;;;5.73;4.33;;;;;;;;;;5067670;28;20516;-63
2023/07/08 00:08:24;;;;;;;7.17;4.40;;;;;;;;;;5050758;28;20567;-64
2023/07/08 00:10:52;;;;;;;6.00;4.17;;;;;;;;;;5055961;28;20493;-65
2023/07/08 00:13:19;;;;;;;4.20;3.67;;;;;;;;;;5048672;28;20651;-66
2023/07/08 00:15:45;;;;;;;6.17;4.60;;;;;;;;;;5058711;28;20526;-66
2023/07/08 00:18:13;;;;;;;6.73;4.03;;;;;;;;;;5054885;28;20459;-65
2023/07/08 00:20:41;;;;;;;8.50;4.47;;;;;;;;;;5054999;28;20535;-64
2023/07/08 00:23:09;;;;;;;4.73;3.83;;;;;;;;;;5056790;28;20551;-64
2023/07/08 00:25:35;;;;;;;14.23;4.27;;;;;;;;;;5053632;28;20499;-64
2023/07/08 00:28:03;;;;;;;6.70;4.27;;;;;;;;;;5056485;28;20545;-64
2023/07/08 00:30:30;;;;;;;6.00;4.33;;;;;;;;;;5050357;28;20609;-64
2023/07/08 00:32:57;;;;;;;5.23;4.37;;;;;;;;;;5057687;28;20460;-63
2023/07/08 00:35:26;;;;;;;4.37;3.97;;;;;;;;;;5058357;28;20456;-63
2023/07/08 00:37:53;;;;;;;5.20;3.90;;;;;;;;;;5051830;28;20484;-63
2023/07/08 00:40:20;;;;;;;5.03;3.77;;;;;;;;;;5056559;28;20456;-63
2023/07/08 00:42:47;;;;;;;6.27;4.30;;;;;;;;;;5058366;28;20543;-64
2023/07/08 00:45:19;;;;;;;6.13;4.40;;;;;;;;;;5052062;28;20481;-63
2023/07/08 00:47:46;;;;;;;5.47;4.10;;;;;;;;;;5054415;28;20564;-64
2023/07/08 00:50:12;;;;;;;5.80;3.90;;;;;;;;;;5057118;28;21058;-65
2023/07/08 00:52:38;;;;;;;5.23;4.40;;;;;;;;;;5056563;28;20515;-65
2023/07/08 00:55:06;;;;;;;5.43;4.30;;;;;;;;;;5057082;28;20519;-64
2023/07/08 00:57:35;;;;;;;6.00;4.17;;;;;;;;;;5061194;28;20488;-64
2023/07/08 01:00:04;;;;;;;9.13;3.97;;;;;;;;;;5057889;28;20491;-64
2023/07/08 01:02:34;;;;;;;4.73;3.93;;;;;;;;;;5048808;28;20684;-63
2023/07/08 01:05:03;;;;;;;6.77;3.97;;;;;;;;;;5054875;28;20491;-63
2023/07/08 01:07:33;;;;;;;6.13;4.07;;;;;;;;;;5078318;28;20488;-63
2023/07/08 01:10:02;;;;;;;4.90;3.80;;;;;;;;;;5077604;28;20487;-63
2023/07/08 01:12:33;;;;;;;5.97;4.23;;;;;;;;;;5078190;28;20479;-63
2023/07/08 01:15:02;;;;;;;4.40;4.00;;;;;;;;;;5082733;28;20448;-64
2023/07/08 01:17:32;;;;;;;4.67;4.17;;;;;;;;;;5081850;28;20463;-64
2023/07/08 01:20:00;;;;;;;5.10;3.83;;;;;;;;;;5074509;28;20459;-64
2023/07/08 01:22:32;;;;;;;5.60;4.40;;;;;;;;;;5077046;28;20524;-64
2023/07/08 01:25:02;;;;;;;8.47;3.87;;;;;;;;;;5076902;28;20456;-63
2023/07/08 01:27:30;;;;;;;5.20;3.57;;;;;;;;;;5077236;28;20563;-64
2023/07/08 01:29:57;;;;;;;4.40;3.70;;;;;;;;;;5077706;28;20491;-64
2023/07/08 01:32:23;;;;;;;4.83;3.10;;;;;;;;;;5076934;28;20953;-64
2023/07/08 01:35:00;;;;;;;5.10;4.20;;;;;;;;;;5077876;28;20462;-64
2023/07/08 01:37:30;;;;;;;7.03;3.80;;;;;;;;;;5081838;28;20451;-64
2023/07/08 01:39:57;;;;;;;5.47;3.80;;;;;;;;;;5082718;28;20459;-64
2023/07/08 01:42:23;;;;;;;4.03;3.63;;;;;;;;;;5084422;28;20510;-63
2023/07/08 01:44:49;;;;;;;4.10;3.37;;;;;;;;;;5088733;28;20507;-64
2023/07/08 01:47:17;;;;;;;4.80;3.80;;;;;;;;;;5080678;28;20531;-64
2023/07/08 01:49:46;;;;;;;4.50;3.80;;;;;;;;;;5080222;28;20447;-64
2023/07/08 01:52:13;;;;;;;5.13;4.20;;;;;;;;;;5079493;28;20772;-64
2023/07/08 01:54:41;;;;;;;7.27;3.30;;;;;;;;;;5081799;28;20543;-64
2023/07/08 01:57:07;;;;;;;5.33;3.70;;;;;;;;;;5074577;28;20478;-65
2023/07/08 01:59:34;;;;;;;4.30;3.40;;;;;;;;;;5080048;28;20546;-64
2023/07/08 02:02:00;;;;;;;5.30;3.20;;;;;;;;;;5083167;28;20555;-65
2023/07/08 02:04:30;;;;;;;3.90;3.50;;;;;;;;;;5080941;28;20943;-64
2023/07/08 02:06:57;;;;;;;4.23;3.00;;;;;;;;;;5081108;28;20935;-64
2023/07/08 02:09:24;;;;;;;4.30;3.30;;;;;;;;;;5081313;28;20535;-65
2023/07/08 02:11:51;;;;;;;4.03;3.40;;;;;;;;;;5085314;28;20501;-65
2023/07/08 02:14:17;;;;;;;4.20;3.80;;;;;;;;;;5081071;28;20462;-65
2023/07/08 02:16:44;;;;;;;3.93;3.53;;;;;;;;;;5078767;28;20536;-64
2023/07/08 02:19:10;;;;;;;3.53;3.23;;;;;;;;;;5079078;28;20535;-64
2023/07/08 02:21:37;;;;;;;4.37;3.50;;;;;;;;;;5078906;28;20802;-65
2023/07/08 02:24:03;;;;;;;6.07;3.73;;;;;;;;;;5081044;28;20479;-65
2023/07/08 02:26:31;;;;;;;4.57;3.53;;;;;;;;;;5080852;28;21187;-65
2023/07/08 02:28:59;;;;;;;5.23;3.53;;;;;;;;;;5081088;28;20484;-65
2023/07/08 02:31:26;;;;;;;4.00;3.60;;;;;;;;;;5079692;28;20547;-65
2023/07/08 02:33:52;;;;;;;4.23;3.33;;;;;;;;;;5081335;28;20512;-65
2023/07/08 02:36:19;;;;;;;4.67;3.60;;;;;;;;;;5080210;28;20498;-65
2023/07/08 02:38:45;;;;;;;4.70;3.60;;;;;;;;;;5079798;28;20488;-65
2023/07/08 02:41:12;;;;;;;5.97;4.27;;;;;;;;;;5080935;28;20551;-64
2023/07/08 02:43:38;;;;;;;5.90;4.07;;;;;;;;;;5079732;28;20448;-65
2023/07/08 02:46:06;;;;;;;3.90;3.27;;;;;;;;;;5082435;28;20684;-64
2023/07/08 02:48:32;;;;;;;4.00;3.50;;;;;;;;;;5079628;28;20507;-65
2023/07/08 02:50:59;;;;;;;4.47;3.70;;;;;;;;;;5074596;28;20503;-65
2023/07/08 02:53:26;;;;;;;5.83;3.30;;;;;;;;;;5080607;28;20456;-65
2023/07/08 02:55:52;;;;;;;3.50;3.20;;;;;;;;;;5081107;28;20478;-65
2023/07/08 02:58:18;;;;;;;3.87;3.20;;;;;;;;;;5081293;28;20471;-65
2023/07/08 03:00:45;;;;;;;3.40;2.90;;;;;;;;;;5080061;28;20491;-65
2023/07/08 03:03:15;;;;;;;4.13;3.40;;;;;;;;;;5080449;28;20452;-64
2023/07/08 03:05:42;;;;;;;3.63;3.30;;;;;;;;;;5071465;28;20476;-64
2023/07/08 03:08:08;;;;;;;3.50;3.10;;;;;;;;;;5057288;28;20495;-65
2023/07/08 03:10:35;;;;;;;5.13;3.83;;;;;;;;;;5059584;28;20476;-65
2023/07/08 03:13:01;;;;;;;4.23;3.60;;;;;;;;;;5060083;28;20481;-66
2023/07/08 03:15:27;;;;;;;7.20;3.63;;;;;;;;;;5052506;28;20477;-64
2023/07/08 03:17:59;;;;;;;4.63;3.80;;;;;;;;;;5058936;28;20517;-64
2023/07/08 03:20:27;;;;;;;5.70;3.60;;;;;;;;;;5059828;28;20543;-65
2023/07/08 03:22:53;;;;;;;5.07;3.63;;;;;;;;;;5058260;28;20497;-64
2023/07/08 03:25:19;;;;;;;4.47;3.50;;;;;;;;;;5058962;28;21239;-65
2023/07/08 03:27:46;;;;;;;5.83;3.27;;;;;;;;;;5052958;28;20538;-65
2023/07/08 03:30:12;;;;;;;3.23;2.93;;;;;;;;;;5059899;28;20476;-64
2023/07/08 03:32:39;;;;;;;4.73;3.37;;;;;;;;;;5057176;28;20801;-64
2023/07/08 03:35:06;;;;;;;5.43;3.47;;;;;;;;;;5058530;28;20541;-64
2023/07/08 03:37:33;;;;;;;4.00;3.40;;;;;;;;;;5058463;28;20533;-64
2023/07/08 03:40:00;;;;;;;4.07;3.47;;;;;;;;;;5059290;28;20485;-64
2023/07/08 03:42:26;;;;;;;3.67;3.37;;;;;;;;;;5057167;28;20463;-65
2023/07/08 03:44:52;;;;;;;4.10;3.30;;;;;;;;;;5065491;28;20528;-64
2023/07/08 03:47:19;;;;;;;3.77;2.87;;;;;;;;;;5057211;28;20491;-65
2023/07/08 03:49:45;;;;;;;5.37;3.50;;;;;;;;;;5057399;28;20949;-65
2023/07/08 03:52:15;;;;;;;3.63;2.73;;;;;;;;;;5058563;28;20476;-65
2023/07/08 03:54:43;;;;;;;4.67;3.33;;;;;;;;;;5059054;28;20463;-64
2023/07/08 03:57:09;;;;;;;3.87;3.23;;;;;;;;;;5057038;28;20512;-64
2023/07/08 03:59:35;;;;;;;6.23;3.30;;;;;;;;;;5055660;28;20493;-64
2023/07/08 04:02:02;;;;;;;3.20;2.83;;;;;;;;;;5057436;28;20491;-64
2023/07/08 04:04:29;;;;;;;3.80;3.40;;;;;;;;;;5058952;28;20984;-64
2023/07/08 04:06:55;;;;;;;4.90;2.97;;;;;;;;;;5056197;28;20553;-64
2023/07/08 04:09:22;;;;;;;3.07;2.70;;;;;;;;;;5057102;28;20485;-65
2023/07/08 04:11:49;;;;;;;4.07;3.20;;;;;;;;;;5058586;28;20463;-65
2023/07/08 04:14:16;;;;;;;3.43;3.13;;;;;;;;;;5056258;28;20508;-65
2023/07/08 04:16:46;;;;;;;4.47;3.77;;;;;;;;;;5058922;28;20520;-65
2023/07/08 04:19:14;;;;;;;4.00;3.30;;;;;;;;;;5054597;28;20480;-65
2023/07/08 04:21:41;;;;;;;3.13;2.70;;;;;;;;;;5056636;28;20457;-65
2023/07/08 04:24:09;;;;;;;4.50;2.87;;;;;;;;;;5057961;28;20475;-65
2023/07/08 04:26:35;;;;;;;3.97;3.17;;;;;;;;;;5057183;28;20532;-65
2023/07/08 04:29:03;;;;;;;3.87;2.90;;;;;;;;;;5057239;28;20477;-66
2023/07/08 04:31:29;;;;;;;5.70;3.20;;;;;;;;;;5058543;28;20930;-65
2023/07/08 04:33:56;;;;;;;5.57;2.87;;;;;;;;;;5057083;28;20899;-66
2023/07/08 04:36:24;;;;;;;4.00;2.70;;;;;;;;;;5055597;28;20786;-66
2023/07/08 04:38:51;;;;;;;3.90;2.77;;;;;;;;;;5055152;28;20465;-66
2023/07/08 04:41:17;;;;;;;4.03;2.87;;;;;;;;;;5058688;28;20544;-66
2023/07/08 04:43:44;;;;;;;6.83;3.10;;;;;;;;;;5058743;28;20471;-66
2023/07/08 04:46:18;;;;;;;4.17;2.80;;;;;;;;;;5052950;28;20543;-66
2023/07/08 04:48:45;;;;;;;6.87;2.60;;;;;;;;;;5054719;28;20469;-66
2023/07/08 04:51:12;;;;;;;3.70;3.10;;;;;;;;;;5054940;28;20520;-66
2023/07/08 04:53:38;;;;;;;5.20;2.93;;;;;;;;;;5059528;28;20525;-66
2023/07/08 04:56:04;;;;;;;2.83;2.30;;;;;;;;;;5060504;28;20806;-66
2023/07/08 04:58:31;;;;;;;5.70;3.10;;;;;;;;;;5054265;28;21038;-66
2023/07/08 05:00:57;;;;;;;3.20;2.33;;;;;;;;;;5054264;28;20488;-66
2023/07/08 05:03:25;;;;;;;5.83;3.20;;;;;;;;;;5055298;28;20543;-66
2023/07/08 05:05:51;;;;;;;5.20;2.90;;;;;;;;;;5057298;28;20558;-66
2023/07/08 05:08:18;;;;;;;5.13;2.73;;;;;;;;;;5058699;28;20560;-66
2023/07/08 05:10:44;;;;;;;3.50;2.77;;;;;;;;;;5053028;28;20507;-66
2023/07/08 05:13:10;;;;;;;4.50;2.90;;;;;;;;;;5056466;28;20449;-65
2023/07/08 05:15:37;;;;;;;3.10;2.80;;;;;;;;;;5058329;28;20532;-66
2023/07/08 05:18:03;;;;;;;3.37;2.43;;;;;;;;;;5057771;28;20516;-66
2023/07/08 05:20:34;;;;;;;3.53;3.23;;;;;;;;;;5057809;28;20463;-67
2023/07/08 05:23:00;;;;;;;3.40;2.50;;;;;;;;;;5057870;28;20456;-67
2023/07/08 05:25:27;;;;;;;4.40;2.63;;;;;;;;;;5058392;28;20524;-67
2023/07/08 05:27:54;;;;;;;3.57;2.97;;;;;;;;;;5058112;28;20483;-66
2023/07/08 05:30:20;;;;;;;4.50;3.10;;;;;;;;;;5058013;28;20488;-66
2023/07/08 05:32:47;;;;;;;5.03;3.27;;;;;;;;;;5057176;28;20473;-67
2023/07/08 05:35:13;;;;;;;3.80;2.93;;;;;;;;;;5057445;28;20516;-66
2023/07/08 05:37:44;;;;;;;3.83;2.47;;;;;;;;;;5057681;28;20477;-66
2023/07/08 05:40:10;;;;;;;5.30;2.67;;;;;;;;;;5057172;28;20535;-66
2023/07/08 05:42:40;;;;;;;4.23;2.83;;;;;;;;;;5056971;28;20840;-66
2023/07/08 05:45:07;;;;;;;3.73;2.73;;;;;;;;;;5056341;28;20532;-67
2023/07/08 05:47:33;;;;;;;3.67;3.30;;;;;;;;;;5055559;28;20479;-66
2023/07/08 05:50:00;;;;;;;5.10;2.77;;;;;;;;;;5054723;28;20525;-66
2023/07/08 05:52:26;;;;;;;4.00;2.60;;;;;;;;;;5056811;28;20476;-67
2023/07/08 05:54:54;;;;;;;3.60;3.00;;;;;;;;;;5055894;28;20495;-67
2023/07/08 05:57:23;;;;;;;5.90;2.93;;;;;;;;;;5057821;28;20461;-66
2023/07/08 05:59:50;;;;;;;3.27;2.70;;;;;;;;;;5051466;28;20499;-66
2023/07/08 06:02:19;;;;;;;4.07;3.07;;;;;;;;;;5057832;28;20631;-66
2023/07/08 06:04:45;;;;;;;3.90;2.57;;;;;;;;;;5057792;28;20453;-66
2023/07/08 06:07:12;;;;;;;3.73;2.60;;;;;;;;;;5057390;28;20542;-67
2023/07/08 06:09:38;;;;;;;5.93;3.10;;;;;;;;;;5054979;28;20519;-63
2023/07/08 06:12:06;;;;;;;5.50;3.00;;;;;;;;;;5050849;28;20534;-63
2023/07/08 06:14:33;;;;;;;5.40;2.97;;;;;;;;;;5057271;28;20855;-66
2023/07/08 06:16:59;;;;;;;3.93;3.10;;;;;;;;;;5058162;28;20510;-65
2023/07/08 06:19:26;;;;;;;3.97;3.00;;;;;;;;;;5053950;28;20520;-64
2023/07/08 06:21:52;;;;;;;3.20;2.70;;;;;;;;;;5056349;28;20469;-64
2023/07/08 06:24:18;;;;;;;4.10;2.83;;;;;;;;;;5058227;28;20540;-65
2023/07/08 06:26:45;;;;;;;4.43;2.80;;;;;;;;;;5060491;28;20484;-63
2023/07/08 06:29:12;;;;;;;5.90;2.83;;;;;;;;;;5056209;28;20567;-63
2023/07/08 06:31:39;;;;;;;4.77;2.93;;;;;;;;;;5055801;28;20477;-63
2023/07/08 06:34:05;;;;;;;6.53;2.83;;;;;;;;;;5059210;28;20544;-63
2023/07/08 06:36:32;;;;;;;4.73;3.10;;;;;;;;;;5061014;28;21050;-63
2023/07/08 06:38:58;;;;;;;3.13;2.83;;;;;;;;;;5061875;28;20521;-64
2023/07/08 06:41:25;;;;;;;7.83;2.70;;;;;;;;;;5061107;28;20515;-64
2023/07/08 06:43:51;;;;;;;4.27;2.63;;;;;;;;;;5061565;28;20473;-65
2023/07/08 06:46:19;;;;;;;3.60;2.70;;;;;;;;;;5061461;28;20476;-65
2023/07/08 06:48:46;;;;;;;3.43;2.70;;;;;;;;;;5060634;28;20477;-65
2023/07/08 06:51:12;;;;;;;6.27;3.13;;;;;;;;;;5061056;28;20449;-64
2023/07/08 06:53:38;;;;;;;4.00;3.20;;;;;;;;;;5054465;28;20456;-63
2023/07/08 06:56:05;;;;;;;4.23;2.90;;;;;;;;;;5058066;28;20455;-64
2023/07/08 06:58:31;;;;;;;4.10;2.60;;;;;;;;;;5059554;28;20477;-64
2023/07/08 07:00:58;;;;;;;4.77;2.60;;;;;;;;;;5051137;28;20522;-63
2023/07/08 07:03:25;;;;;;;4.80;2.50;;;;;;;;;;5059170;28;20484;-64
2023/07/08 07:05:52;;;;;;;5.40;2.90;;;;;;;;;;5061223;28;20500;-65
2023/07/08 07:08:18;;;;;;;5.10;2.90;;;;;;;;;;5083927;28;20531;-63
2023/07/08 07:10:44;;;;;;;5.40;3.10;;;;;;;;;;5084732;28;20583;-63
2023/07/08 07:13:11;;;;;;;4.40;2.80;;;;;;;;;;5080976;28;20515;-64
2023/07/08 07:15:37;;;;;;;3.00;2.67;;;;;;;;;;5090665;28;20456;-64
2023/07/08 07:18:04;;;;;;;2.80;2.10;;;;;;;;;;5077612;28;20486;-65
2023/07/08 07:20:32;;;;;;;4.93;3.20;;;;;;;;;;5079892;28;20580;-64
2023/07/08 07:22:58;;;;;;;4.20;3.00;;;;;;;;;;5079930;28;21117;-65
2023/07/08 07:25:25;;;;;;;5.67;3.07;;;;;;;;;;5090754;28;20520;-65
2023/07/08 07:27:51;;;;;;;6.13;2.70;;;;;;;;;;5081344;28;20606;-65
2023/07/08 07:30:17;;;;;;;3.63;2.70;;;;;;;;;;5079554;28;20492;-65
2023/07/08 07:32:44;;;;;;;5.27;3.10;;;;;;;;;;5079888;28;20601;-64
2023/07/08 07:35:12;;;;;;;3.13;2.47;;;;;;;;;;5083129;28;20479;-65
2023/07/08 07:37:40;;;;;;;4.20;2.93;;;;;;;;;;5079496;28;20535;-64
2023/07/08 07:40:12;;;;;;;4.43;3.00;;;;;;;;;;5078398;28;20563;-64
2023/07/08 07:42:41;;;;;;;3.30;3.00;;;;;;;;;;5078738;28;20515;-64
2023/07/08 07:45:08;;;;;;;3.10;2.70;;;;;;;;;;5075646;28;20528;-64
2023/07/08 07:47:35;;;;;;;5.53;3.03;;;;;;;;;;5077284;28;20471;-64
2023/07/08 07:50:02;;;;;;;7.70;3.63;;;;;;;;;;5072655;28;20515;-65
2023/07/08 07:52:28;;;;;;;6.93;2.90;;;;;;;;;;5077076;28;20474;-64
2023/07/08 07:54:56;;;;;;;4.77;2.90;;;;;;;;;;5081098;28;20467;-64
2023/07/08 07:57:23;;;;;;;4.10;2.80;;;;;;;;;;5078817;28;20916;-64
2023/07/08 07:59:49;;;;;;;4.00;3.10;;;;;;;;;;5074602;28;20455;-65
2023/07/08 08:02:16;;;;;;;2.90;2.63;;;;;;;;;;5082792;28;20483;-64
2023/07/08 08:04:42;;;;;;;2.83;2.50;;;;;;;;;;5075554;28;20478;-64
2023/07/08 08:07:09;;;;;;;3.73;2.97;;;;;;;;;;5057451;28;20511;-65
2023/07/08 08:09:36;;;;;;;3.33;2.70;;;;;;;;;;5050710;28;20542;-65
2023/07/08 08:12:04;;;;;;;8.50;2.77;;;;;;;;;;5059758;28;20524;-64
2023/07/08 08:14:31;;;;;;;3.40;3.07;;;;;;;;;;5063544;28;20500;-65
2023/07/08 08:16:57;;;;;;;3.70;3.27;;;;;;;;;;5060371;28;20496;-64
2023/07/08 08:19:23;;;;;;;5.20;3.13;;;;;;;;;;5064307;28;20695;-64
2023/07/08 08:21:50;;;;;;;4.40;2.90;;;;;;;;;;5059135;28;20540;-64
2023/07/08 08:24:16;;;;;;;4.27;3.23;;;;;;;;;;5058450;28;20481;-65
2023/07/08 08:26:42;;;;;;;6.40;3.20;;;;;;;;;;5067433;28;20479;-65
2023/07/08 08:29:10;;;;;;;3.30;3.00;;;;;;;;;;5057798;28;20652;-65
2023/07/08 08:31:36;;;;;;;3.13;2.33;;;;;;;;;;5053336;28;20898;-64
2023/07/08 08:34:03;;;;;;;4.30;2.90;;;;;;;;;;5056206;28;20461;-64
2023/07/08 08:36:29;;;;;;;4.23;2.77;;;;;;;;;;5046155;28;20576;-64
2023/07/08 08:38:56;;;;;;;3.30;3.00;;;;;;;;;;5059038;28;20851;-64
2023/07/08 08:41:28;;;;;;;5.17;3.20;;;;;;;;;;5062697;28;20456;-64
2023/07/08 08:43:54;;;;;;;4.03;2.80;;;;;;;;;;5057831;28;20485;-64
2023/07/08 08:46:28;;;;;;;3.60;3.17;;;;;;;;;;5062786;28;20441;-64
2023/07/08 08:48:57;;;;;;;5.43;3.70;;;;;;;;;;5048177;28;20456;-65
2023/07/08 08:51:25;;;;;;;3.70;3.17;;;;;;;;;;5055701;28;20811;-67
2023/07/08 08:53:53;;;;;;;7.20;3.00;;;;;;;;;;5053982;28;20544;-67
2023/07/08 08:56:21;;;;;;;3.00;2.70;;;;;;;;;;5050506;28;20511;-66
2023/07/08 08:58:52;;;;;;;5.17;3.33;;;;;;;;;;5052530;28;20575;-67
2023/07/08 09:01:19;;;;;;;4.10;3.23;;;;;;;;;;5056535;28;20879;-68
2023/07/08 09:03:50;;;;;;;4.30;3.00;;;;;;;;;;5050680;28;20540;-67
2023/07/08 09:06:18;;;;;;;3.60;3.30;;;;;;;;;;5047502;28;20476;-67
2023/07/08 09:08:44;;;;;;;5.23;2.97;;;;;;;;;;5055488;28;20508;-67
2023/07/08 09:11:15;;;;;;;5.27;3.67;;;;;;;;;;5055477;28;20599;-67
2023/07/08 09:13:42;;;;;;;5.43;3.00;;;;;;;;;;5056998;28;20461;-67
2023/07/08 09:19:17;;;;;;;4.70;3.90;;;;;;;;;;5046308;28;20400;-67
2023/07/08 09:21:49;;;;;;;6.53;3.30;;;;;;;;;;5052522;28;20521;-67
2023/07/08 09:24:17;;;;;;;4.00;3.60;;;;;;;;;;5055398;28;20524;-67
2023/07/08 09:26:46;;;;;;;5.90;3.47;;;;;;;;;;5057250;28;20516;-67
2023/07/08 09:29:12;;;;;;;4.90;3.63;;;;;;;;;;5055142;28;20485;-66
2023/07/08 09:31:39;;;;;;;3.63;3.13;;;;;;;;;;5054960;28;20696;-67
2023/07/08 09:34:08;;;;;;;4.20;3.17;;;;;;;;;;5056858;28;20811;-67
2023/07/08 09:36:39;;;;;;;3.60;3.10;;;;;;;;;;5050288;28;20476;-67
2023/07/08 09:39:10;;;;;;;3.53;3.23;;;;;;;;;;5053662;28;21035;-67
2023/07/08 09:41:37;;;;;;;3.97;3.37;;;;;;;;;;5057163;28;20496;-66
2023/07/08 09:44:04;;;;;;;6.43;3.50;;;;;;;;;;5057531;28;20484;-67
2023/07/08 09:46:35;;;;;;;4.30;3.33;;;;;;;;;;5050976;28;20453;-67
2023/07/08 09:49:09;;;;;;;3.60;3.30;;;;;;;;;;5053629;28;20540;-68
2023/07/08 09:51:37;;;;;;;4.37;2.90;;;;;;;;;;5056730;28;20445;-67
2023/07/08 09:54:04;;;;;;;5.30;3.87;;;;;;;;;;5052736;28;20491;-68
2023/07/08 09:56:31;;;;;;;5.03;3.27;;;;;;;;;;5053668;28;20496;-68
2023/07/08 09:58:57;;;;;;;4.67;3.43;;;;;;;;;;5049370;28;20499;-67
2023/07/08 10:01:27;;;;;;;4.10;3.70;;;;;;;;;;5053049;28;20536;-67
2023/07/08 10:03:58;;;;;;;4.33;3.03;;;;;;;;;;5059386;28;20499;-67
2023/07/08 10:06:26;;;;;;;4.43;4.00;;;;;;;;;;5064925;28;20519;-68
2023/07/08 10:08:54;;;;;;;7.73;4.27;;;;;;;;;;5058254;28;20539;-67
2023/07/08 10:11:24;;;;;;;7.03;3.23;;;;;;;;;;5065032;28;20556;-67
2023/07/08 10:13:53;;;;;;;5.50;3.70;;;;;;;;;;5059918;28;20491;-67
2023/07/08 10:16:22;;;;;;;5.70;4.13;;;;;;;;;;5044831;28;20708;-67
2023/07/08 10:18:48;;;;;;;4.13;3.73;;;;;;;;;;5060279;28;20459;-67
2023/07/08 10:21:22;;;;;;;4.80;3.77;;;;;;;;;;5050895;28;20552;-67
2023/07/08 10:23:53;;;;;;;7.90;4.20;;;;;;;;;;5055471;28;20529;-67
2023/07/08 10:26:25;;;;;;;4.63;3.43;;;;;;;;;;5049678;28;20464;-67
2023/07/08 10:28:57;;;;;;;6.50;3.90;;;;;;;;;;5060799;28;20864;-67
2023/07/08 10:31:27;;;;;;;4.73;3.57;;;;;;;;;;5055744;28;20612;-66
2023/07/08 10:34:03;;;;;;;3.93;3.53;;;;;;;;;;5053187;28;21037;-66
2023/07/08 10:36:43;;;;;;;7.03;3.97;;;;;;;;;;5059624;28;20468;-68
2023/07/08 10:39:23;;;;;;;3.43;3.10;;;;;;;;;;5053495;28;20495;-68
2023/07/08 10:41:54;;;;;;;4.70;3.47;;;;;;;;;;5055500;28;20943;-67
2023/07/08 10:44:26;;;;;;;3.73;3.43;;;;;;;;;;5061088;28;20469;-67
2023/07/08 10:46:59;;;;;;;5.57;3.80;;;;;;;;;;5067859;28;20475;-67
2023/07/08 10:49:34;;;;;;;4.40;3.50;;;;;;;;;;5064303;28;20488;-67
2023/07/08 10:52:08;;;;;;;4.27;3.80;;;;;;;;;;5065032;28;20989;-67
2023/07/08 10:54:41;;;;;;;3.80;3.47;;;;;;;;;;5060120;28;20452;-66
2023/07/08 10:57:15;;;;;;;4.33;3.83;;;;;;;;;;5047853;28;21632;-66
2023/07/08 10:59:47;;;;;;;4.40;3.73;;;;;;;;;;5049499;28;20532;-67
2023/07/08 11:02:19;;;;;;;7.67;3.60;;;;;;;;;;5060843;28;20493;-66
2023/07/08 11:04:50;;;;;;;4.07;3.67;;;;;;;;;;5061140;28;20481;-66
2023/07/08 11:07:18;;;;;;;5.33;3.93;;;;;;;;;;5057079;28;20530;-68
2023/07/08 11:09:47;;;;;;;5.00;4.50;;;;;;;;;;5054368;28;20517;-67
2023/07/08 11:12:21;;;;;;;6.80;4.30;;;;;;;;;;5055701;28;20516;-67
2023/07/08 11:14:50;;;;;;;5.23;4.73;;;;;;;;;;5045492;28;20551;-67
2023/07/08 11:17:19;;;;;;;4.70;4.30;;;;;;;;;;5050174;28;20529;-67
2023/07/08 11:19:48;;;;;;;4.77;4.27;;;;;;;;;;5048242;28;20557;-68
2023/07/08 11:22:16;;;;;;;7.00;4.60;;;;;;;;;;5057134;28;20524;-68
2023/07/08 11:24:45;;;;;;;8.60;4.20;;;;;;;;;;5045246;28;20888;-68
2023/07/08 11:27:18;;;;;;;6.37;4.20;;;;;;;;;;5062782;28;20486;-67
2023/07/08 11:29:49;;;;;;;4.97;4.47;;;;;;;;;;5060203;28;20452;-68
2023/07/08 11:32:17;;;;;;;5.83;4.87;;;;;;;;;;5059685;28;20539;-67
2023/07/08 11:34:45;;;;;;;5.67;4.70;;;;;;;;;;5048260;28;20484;-68
2023/07/08 11:37:12;;;;;;;4.90;4.33;;;;;;;;;;5048099;28;20460;-68
2023/07/08 11:39:40;;;;;;;9.13;4.77;;;;;;;;;;5048564;28;20533;-68
2023/07/08 11:42:14;;;;;;;5.53;4.60;;;;;;;;;;5052356;28;20537;-67
2023/07/08 11:44:43;;;;;;;5.90;4.83;;;;;;;;;;5056732;28;20531;-68
2023/07/08 11:47:14;;;;;;;5.50;4.40;;;;;;;;;;5051406;28;20469;-68
2023/07/08 11:49:41;;;;;;;5.70;5.10;;;;;;;;;;5058725;28;20502;-68
2023/07/08 11:52:14;;;;;;;6.07;4.47;;;;;;;;;;5064302;28;20528;-67
2023/07/08 11:54:45;;;;;;;6.43;5.40;;;;;;;;;;5065674;28;20500;-67
2023/07/08 11:57:17;;;;;;;6.90;4.93;;;;;;;;;;5059131;28;20924;-67
2023/07/08 11:59:44;;;;;;;5.40;4.30;;;;;;;;;;5068281;28;20456;-67
2023/07/08 12:02:14;;;;;;;5.80;4.70;;;;;;;;;;5067380;28;20457;-69
2023/07/08 12:04:56;;;;;;;5.40;4.63;;;;;;;;;;5061894;28;20860;-67
2023/07/08 12:07:31;;;;;;;8.10;4.93;;;;;;;;;;5053637;28;20487;-67
2023/07/08 12:09:59;;;;;;;4.83;4.30;;;;;;;;;;5058303;28;20499;-67
2023/07/08 12:12:28;;;;;;;5.03;4.30;;;;;;;;;;5059130;28;20495;-67
2023/07/08 12:15:01;;;;;;;5.90;4.73;;;;;;;;;;5057386;28;20451;-66
2023/07/08 12:17:29;;;;;;;4.83;4.43;;;;;;;;;;5059228;28;20459;-66
2023/07/08 12:19:58;;;;;;;5.43;4.93;;;;;;;;;;5057334;28;20521;-66
2023/07/08 12:22:25;;;;;;;6.10;4.50;;;;;;;;;;5048389;28;20452;-66
2023/07/08 12:24:51;;;;;;;5.20;4.70;;;;;;;;;;5057412;28;20948;-67
2023/07/08 12:27:18;;;;;;;6.43;4.70;;;;;;;;;;5057241;28;20455;-67
2023/07/08 12:29:44;;;;;;;5.97;5.10;;;;;;;;;;5056928;28;20468;-67
2023/07/08 12:32:12;;;;;;;7.63;5.17;;;;;;;;;;5056877;28;20560;-66
2023/07/08 12:34:40;;;;;;;6.03;5.00;;;;;;;;;;5057087;28;20456;-68
2023/07/08 12:37:10;;;;;;;6.50;5.33;;;;;;;;;;5055692;28;20467;-68
2023/07/08 12:39:36;;;;;;;5.77;5.03;;;;;;;;;;5056901;28;21009;-67
2023/07/08 12:42:04;;;;;;;7.23;5.23;;;;;;;;;;5058097;28;20520;-67
2023/07/08 12:44:30;;;;;;;12.43;5.47;;;;;;;;;;5055662;28;20447;-67
2023/07/08 12:46:57;;;;;;;5.47;4.97;;;;;;;;;;5057464;28;20509;-66
2023/07/08 12:49:27;;;;;;;5.43;4.50;;;;;;;;;;5056627;28;20512;-65
2023/07/08 12:51:54;;;;;;;6.97;5.23;;;;;;;;;;5057006;28;20485;-65
2023/07/08 12:54:21;;;;;;;6.53;5.30;;;;;;;;;;5057685;28;20464;-69
2023/07/08 12:56:48;;;;;;;5.50;4.60;;;;;;;;;;5048611;28;20472;-67
2023/07/08 12:59:18;;;;;;;5.77;5.17;;;;;;;;;;5049978;28;20552;-69
2023/07/08 13:01:46;;;;;;;6.90;4.83;;;;;;;;;;5047170;28;20496;-69
2023/07/08 13:04:13;;;;;;;6.27;4.70;;;;;;;;;;5048052;28;20488;-69
2023/07/08 13:06:41;;;;;;;6.20;4.90;;;;;;;;;;5053455;28;20579;-69
2023/07/08 13:09:14;;;;;;;5.70;5.20;;;;;;;;;;5054669;28;20878;-69
2023/07/08 13:11:42;;;;;;;6.20;4.87;;;;;;;;;;5051323;28;20555;-68
2023/07/08 13:14:08;;;;;;;5.43;4.70;;;;;;;;;;5045179;28;20782;-69
2023/07/08 13:16:35;;;;;;;5.63;4.83;;;;;;;;;;5056074;28;20483;-68
2023/07/08 13:19:02;;;;;;;9.20;4.87;;;;;;;;;;5049963;28;20963;-69
2023/07/08 13:21:30;;;;;;;8.10;5.53;;;;;;;;;;5049013;28;20476;-69
2023/07/08 13:23:57;;;;;;;8.53;5.93;;;;;;;;;;5047053;28;20449;-68
2023/07/08 13:26:27;;;;;;;11.00;4.47;;;;;;;;;;5043510;28;20557;-69
2023/07/08 13:28:59;;;;;;;4.70;4.30;;;;;;;;;;5047755;28;20798;-69
2023/07/08 13:31:32;;;;;;;8.17;4.93;;;;;;;;;;5048843;28;20576;-66
2023/07/08 13:33:58;;;;;;;7.20;4.53;;;;;;;;;;5049898;28;20522;-63
2023/07/08 13:36:28;;;;;;;6.20;4.57;;;;;;;;;;5049435;28;20488;-63
2023/07/08 13:38:55;;;;;;;6.10;4.33;;;;;;;;;;5059713;28;20468;-64
2023/07/08 13:41:22;;;;;;;8.57;4.67;;;;;;;;;;5055448;28;20479;-63
2023/07/08 13:43:50;;;;;;;7.10;5.17;;;;;;;;;;5056639;28;21423;-62
2023/07/08 13:46:30;;;;;;;5.10;4.60;;;;;;;;;;5052366;28;20529;-64
2023/07/08 13:48:56;;;;;;;5.60;5.07;;;;;;;;;;5051313;28;20492;-63
2023/07/08 13:51:24;;;;;;;5.50;5.00;;;;;;;;;;5050725;28;21020;-63
2023/07/08 13:53:53;;;;;;;5.20;4.70;;;;;;;;;;5048424;28;20468;-63
2023/07/08 13:56:21;;;;;;;6.23;5.30;;;;;;;;;;5054131;28;20811;-63
2023/07/08 13:58:49;;;;;;;6.23;4.93;;;;;;;;;;5053656;28;20489;-64
2023/07/08 14:01:18;;;;;;;5.93;4.80;;;;;;;;;;5050891;28;20472;-64
2023/07/08 14:03:44;;;;;;;5.30;4.80;;;;;;;;;;5050542;28;20516;-64
2023/07/08 14:06:14;;;;;;;5.07;4.50;;;;;;;;;;5059199;28;20563;-65
2023/07/08 14:08:40;;;;;;;5.03;4.53;;;;;;;;;;5075159;28;20531;-64
2023/07/08 14:11:07;;;;;;;5.93;5.20;;;;;;;;;;5080019;28;20578;-64
2023/07/08 14:13:34;;;;;;;6.20;5.00;;;;;;;;;;5078729;28;20963;-65
2023/07/08 14:16:00;;;;;;;5.80;5.17;;;;;;;;;;5080305;28;20523;-64
2023/07/08 14:18:28;;;;;;;6.23;5.07;;;;;;;;;;5087217;28;20454;-64
2023/07/08 14:20:55;;;;;;;5.67;4.57;;;;;;;;;;5080072;28;21008;-65
2023/07/08 14:23:21;;;;;;;5.30;4.73;;;;;;;;;;5080119;28;20864;-64
2023/07/08 14:25:47;;;;;;;6.30;5.60;;;;;;;;;;5079769;28;21033;-65
2023/07/08 14:28:14;;;;;;;7.50;5.57;;;;;;;;;;5079269;28;20476;-64
2023/07/08 14:30:42;;;;;;;5.70;5.10;;;;;;;;;;5079458;28;20578;-65
2023/07/08 14:33:09;;;;;;;9.77;5.70;;;;;;;;;;5075005;28;20547;-64
2023/07/08 14:35:37;;;;;;;5.27;4.77;;;;;;;;;;5078551;28;20452;-64
2023/07/08 14:38:04;;;;;;;6.90;4.97;;;;;;;;;;5080001;28;20490;-65
2023/07/08 14:40:33;;;;;;;5.60;5.10;;;;;;;;;;5076062;28;20513;-65
2023/07/08 14:43:01;;;;;;;5.37;4.87;;;;;;;;;;5077677;28;20460;-65
2023/07/08 14:45:29;;;;;;;7.77;4.70;;;;;;;;;;5075465;28;20539;-64
2023/07/08 14:47:56;;;;;;;6.37;5.17;;;;;;;;;;5087373;28;20451;-64
2023/07/08 14:50:25;;;;;;;6.73;4.60;;;;;;;;;;5079168;28;20448;-64